logo
Search for airport 
image banner adimage banner adimage banner ad
image banner ad

LOIR - Reutte-Hofen

Located in District Reutte, Austria

ICAO - LOIR, IATA -

Data provided by Airmate  

General information

Coordinates: N47°28'15" E10°41'29"
Elevation is 2806 feet MSL.
 
View others Airports in Tyrol

Operational data

Special qualification required
Current time UTC:
Current local time:
Weather at : ETHA - Altenstadt ( 43 km )
METAR: ETHA 150828Z 28007KT 9999 -TSRA FEW020 BKN050CB 13/11 Q1013 BLU BLU TEMPO WHT
TAF: TAF AMD ETHA 150830Z 1508/1517 27012G22KT 9999 NSW SCT040 BKN080 TEMPO 1508/1517 27020G35KT 6000 TSRA BKN020CB BKN040
View NOTAMs / SUP AIP / TFR affecting this airport [VIEW]
Communications frequencies: [VIEW]

Runways:

RWY identifierQFULength (ft)Width (ft)SurfaceLDA (ft)
04222859UNK
22222859UNK

Airport contact information

Address: District Reutte Austria

Satellite view of LOIR